Time;durP1;ratioP1;P1;durP2;ratioP2;P2;SDS_P1;SDS_P2;PMS_P1;PMS_P2;Temp;Humidity;BMP_temperature;BMP_pressure;BME280_temperature;BME280_humidity;BME280_pressure;Samples;Min_cycle;Max_cycle;Signal;HPM_P1;HPM_P2
2022/07/08 00:01:04;;;;;;;8.25;1.02;;;15.90;99.90;;;;;;5034591;28;20017;-37
2022/07/08 00:03:30;;;;;;;4.72;1.30;;;15.90;99.90;;;;;;5032297;28;20032;-35
2022/07/08 00:05:55;;;;;;;4.82;1.52;;;15.90;99.90;;;;;;5048263;28;20032;-29
2022/07/08 00:08:22;;;;;;;3.17;0.98;;;15.80;99.90;;;;;;5045493;28;20104;-31
2022/07/08 00:10:48;;;;;;;5.40;0.98;;;15.80;99.90;;;;;;5034293;28;20021;-33
2022/07/08 00:13:13;;;;;;;5.03;0.85;;;15.80;99.90;;;;;;5034814;28;20021;-30
2022/07/08 00:15:39;;;;;;;5.45;0.93;;;15.70;99.90;;;;;;5035099;28;20061;-31
2022/07/08 00:18:05;;;;;;;7.18;1.20;;;15.70;99.90;;;;;;5033968;28;20136;-35
2022/07/08 00:20:30;;;;;;;5.22;1.23;;;15.60;99.90;;;;;;5032359;28;20029;-39
2022/07/08 00:22:57;;;;;;;7.88;0.98;;;15.60;99.90;;;;;;5029288;28;20040;-36
2022/07/08 00:25:22;;;;;;;7.13;0.98;;;15.70;99.90;;;;;;5027906;28;20032;-36
2022/07/08 00:27:48;;;;;;;1.00;0.82;;;15.60;99.90;;;;;;5034122;28;20017;-39
2022/07/08 00:30:14;;;;;;;6.13;1.35;;;15.60;99.90;;;;;;5034513;28;20044;-38
2022/07/08 00:32:39;;;;;;;4.80;0.82;;;15.60;99.90;;;;;;5013128;28;20474;-38
2022/07/08 00:35:05;;;;;;;8.13;1.10;;;15.60;99.90;;;;;;5026364;28;20409;-37
2022/07/08 00:37:31;;;;;;;5.68;0.80;;;15.60;99.90;;;;;;5030747;28;20485;-33
2022/07/08 00:39:57;;;;;;;9.00;1.25;;;15.60;99.90;;;;;;5032048;28;20029;-32
2022/07/08 00:42:22;;;;;;;4.32;1.48;;;15.60;99.90;;;;;;5030708;28;20040;-33
2022/07/08 00:44:48;;;;;;;7.40;1.30;;;15.60;99.90;;;;;;5034516;28;20474;-31
2022/07/08 00:47:14;;;;;;;9.40;1.45;;;15.60;99.90;;;;;;5031559;28;20042;-32
2022/07/08 00:49:40;;;;;;;6.43;1.48;;;15.50;99.90;;;;;;5031344;28;20037;-31
2022/07/08 00:52:07;;;;;;;3.03;1.00;;;15.40;99.90;;;;;;5032191;28;20029;-30
2022/07/08 00:54:32;;;;;;;5.78;1.02;;;15.40;99.90;;;;;;5033399;28;20044;-31
2022/07/08 00:57:00;;;;;;;3.05;0.98;;;15.30;99.90;;;;;;5029249;28;20021;-32
2022/07/08 00:59:27;;;;;;;3.90;1.23;;;15.20;99.90;;;;;;5032514;28;20045;-30
2022/07/08 01:01:53;;;;;;;9.38;1.00;;;15.20;99.90;;;;;;5031571;28;20112;-29
2022/07/08 01:04:18;;;;;;;7.32;1.58;;;15.10;99.90;;;;;;5034203;28;20049;-29
2022/07/08 01:06:45;;;;;;;5.47;1.40;;;15.00;99.90;;;;;;5032201;28;20500;-32
2022/07/08 01:09:14;;;;;;;3.50;1.50;;;15.00;99.90;;;;;;5034272;28;20041;-32
2022/07/08 01:11:42;;;;;;;8.43;1.70;;;15.00;99.90;;;;;;5031674;28;20057;-32
2022/07/08 01:14:07;;;;;;;3.10;0.90;;;15.00;99.90;;;;;;5031469;28;20559;-47
2022/07/08 01:16:33;;;;;;;8.80;1.30;;;14.90;99.90;;;;;;5030841;28;20029;-41
2022/07/08 01:18:59;;;;;;;6.40;1.00;;;14.90;99.90;;;;;;5031782;28;20022;-39
2022/07/08 01:21:24;;;;;;;6.22;1.10;;;14.90;99.90;;;;;;5032104;28;20431;-31
2022/07/08 01:23:50;;;;;;;2.10;0.90;;;14.90;99.90;;;;;;5032782;28;20013;-34
2022/07/08 01:26:16;;;;;;;6.72;1.13;;;14.90;99.90;;;;;;5030600;28;20052;-32
2022/07/08 01:28:43;;;;;;;10.50;1.50;;;14.90;99.90;;;;;;5029785;28;20026;-32
2022/07/08 01:31:09;;;;;;;3.83;0.90;;;14.90;99.90;;;;;;5014391;28;20017;-29
2022/07/08 01:33:35;;;;;;;8.32;1.20;;;14.90;99.90;;;;;;5032752;28;20381;-30
2022/07/08 01:36:00;;;;;;;3.40;0.90;;;14.80;99.90;;;;;;5031723;28;20026;-29
2022/07/08 01:38:26;;;;;;;2.10;0.77;;;14.70;99.90;;;;;;5028066;28;20417;-48
2022/07/08 01:40:52;;;;;;;4.10;1.10;;;14.70;99.90;;;;;;5032793;28;20485;-37
2022/07/08 01:43:17;;;;;;;6.03;1.08;;;14.70;99.90;;;;;;5031311;28;20025;-38
2022/07/08 01:45:43;;;;;;;7.43;0.80;;;14.70;99.90;;;;;;5010876;28;20382;-34
2022/07/08 01:48:08;;;;;;;6.88;1.67;;;14.70;99.90;;;;;;5011325;28;20030;-29
2022/07/08 01:50:34;;;;;;;5.07;1.40;;;14.60;99.90;;;;;;5011382;28;20034;-33
2022/07/08 01:53:00;;;;;;;6.10;1.00;;;14.70;99.90;;;;;;5011522;28;20025;-35
2022/07/08 01:55:25;;;;;;;4.78;1.08;;;14.60;99.90;;;;;;5012070;28;20037;-46
2022/07/08 01:57:51;;;;;;;4.68;1.20;;;14.60;99.90;;;;;;5009461;28;20076;-67
2022/07/08 02:00:17;;;;;;;6.18;1.45;;;14.60;99.90;;;;;;5009082;28;20130;-38
2022/07/08 02:02:43;;;;;;;3.30;1.00;;;14.60;99.90;;;;;;5011969;28;20113;-40
2022/07/08 02:05:10;;;;;;;12.65;1.80;;;14.60;99.90;;;;;;5013779;28;20022;-52
2022/07/08 02:07:36;;;;;;;8.52;1.42;;;14.60;99.90;;;;;;5012146;28;20489;-38
2022/07/08 02:10:03;;;;;;;15.02;2.00;;;14.50;99.90;;;;;;5012390;28;20022;-39
2022/07/08 02:12:28;;;;;;;7.95;1.00;;;14.50;99.90;;;;;;5009204;28;20038;-37
2022/07/08 02:15:01;;;;;;;6.70;1.40;;;14.50;99.90;;;;;;5007281;28;20025;-38
2022/07/08 02:17:28;;;;;;;4.15;1.30;;;14.50;99.90;;;;;;5010471;28;20165;-38
2022/07/08 02:19:54;;;;;;;1.50;0.83;;;14.40;99.90;;;;;;5010092;28;20026;-37
2022/07/08 02:22:19;;;;;;;2.20;0.98;;;14.30;99.90;;;;;;5013259;28;20284;-30
2022/07/08 02:24:47;;;;;;;4.50;0.85;;;14.30;99.90;;;;;;5011454;28;20076;-30
2022/07/08 02:27:31;;;;;;;2.95;1.00;;;14.20;99.90;;;;;;5011133;28;20018;-30
2022/07/08 02:29:57;;;;;;;5.50;0.90;;;14.10;99.90;;;;;;5011112;28;20038;-32
2022/07/08 02:32:22;;;;;;;3.28;1.13;;;14.10;99.90;;;;;;5010552;28;20412;-31
2022/07/08 02:34:48;;;;;;;4.07;1.05;;;14.10;99.90;;;;;;5012097;28;20032;-37
2022/07/08 02:37:14;;;;;;;3.92;1.23;;;14.00;99.90;;;;;;5009517;28;20377;-38
2022/07/08 02:39:40;;;;;;;10.48;1.95;;;14.10;99.90;;;;;;5011687;28;20453;-29
2022/07/08 02:42:06;;;;;;;6.35;1.20;;;14.00;99.90;;;;;;5011379;28;20371;-32
2022/07/08 02:44:32;;;;;;;6.35;1.25;;;14.00;99.90;;;;;;5011289;28;20316;-31
2022/07/08 02:46:57;;;;;;;7.35;1.10;;;14.00;99.90;;;;;;5011140;28;20125;-42
2022/07/08 02:49:24;;;;;;;3.22;1.20;;;14.00;99.90;;;;;;5010179;28;20504;-30
2022/07/08 02:51:49;;;;;;;7.47;1.33;;;14.00;99.90;;;;;;5012251;28;20057;-33
2022/07/08 02:54:16;;;;;;;4.15;0.90;;;13.90;99.90;;;;;;5011696;28;20037;-32
2022/07/08 02:56:41;;;;;;;5.05;0.85;;;13.90;99.90;;;;;;5010249;28;20025;-33
2022/07/08 02:59:07;;;;;;;5.00;0.95;;;13.90;99.90;;;;;;5008444;28;20038;-32
2022/07/08 03:01:32;;;;;;;5.50;1.20;;;13.90;99.90;;;;;;5011440;28;20034;-37
2022/07/08 03:03:58;;;;;;;9.02;1.38;;;13.90;99.90;;;;;;5011354;28;20022;-29
2022/07/08 03:06:24;;;;;;;8.73;1.00;;;13.80;99.90;;;;;;5011369;28;20022;-32
2022/07/08 03:08:50;;;;;;;5.93;1.00;;;13.90;99.90;;;;;;5011297;28;20485;-35
2022/07/08 03:11:15;;;;;;;7.05;0.95;;;13.90;99.90;;;;;;5010795;28;20022;-47
2022/07/08 03:13:41;;;;;;;10.77;1.67;;;13.90;99.90;;;;;;5011923;28;20493;-38
2022/07/08 03:16:07;;;;;;;5.13;1.10;;;13.90;99.90;;;;;;5011705;28;20030;-37
2022/07/08 03:18:33;;;;;;;5.35;1.55;;;13.90;99.90;;;;;;5010721;28;20026;-39
2022/07/08 03:20:59;;;;;;;10.30;1.17;;;13.90;99.90;;;;;;5011205;28;20022;-38
2022/07/08 03:23:25;;;;;;;6.82;1.00;;;13.90;99.90;;;;;;5014855;28;20509;-39
2022/07/08 03:25:50;;;;;;;7.25;1.55;;;13.90;99.90;;;;;;5015659;28;20029;-38
2022/07/08 03:28:16;;;;;;;3.10;1.05;;;13.80;99.90;;;;;;5012308;28;20195;-28
2022/07/08 03:30:42;;;;;;;8.07;1.50;;;13.80;99.90;;;;;;5014916;28;20421;-34
2022/07/08 03:33:07;;;;;;;5.78;1.33;;;13.80;99.90;;;;;;5014963;28;20033;-32
2022/07/08 03:35:33;;;;;;;3.60;0.98;;;13.90;99.90;;;;;;5015398;28;20037;-35
2022/07/08 03:37:59;;;;;;;3.22;1.20;;;13.80;99.90;;;;;;5014729;28;20398;-31
2022/07/08 03:43:09;;;;;;;6.80;1.10;;;13.80;99.90;;;;;;5014726;28;20406;-37
2022/07/08 03:45:36;;;;;;;4.88;1.00;;;13.80;99.90;;;;;;5019412;28;20482;-32
2022/07/08 03:48:03;;;;;;;4.78;1.00;;;13.80;99.90;;;;;;5034216;28;20037;-32
2022/07/08 03:50:29;;;;;;;3.20;0.90;;;13.80;99.90;;;;;;5034667;28;20022;-31
2022/07/08 03:52:54;;;;;;;1.73;0.75;;;13.80;99.90;;;;;;5035607;28;20026;-30
2022/07/08 03:55:24;;;;;;;2.58;0.80;;;13.80;99.90;;;;;;5032499;28;20022;-33
2022/07/08 03:57:49;;;;;;;6.30;1.45;;;13.80;99.90;;;;;;5032709;28;20381;-31
2022/07/08 04:00:15;;;;;;;4.15;1.10;;;13.70;99.90;;;;;;5031313;28;20022;-31
2022/07/08 04:02:41;;;;;;;3.85;1.00;;;13.70;99.90;;;;;;5031212;28;20041;-28
2022/07/08 04:05:07;;;;;;;2.20;0.70;;;13.70;99.90;;;;;;5032726;28;20021;-28
2022/07/08 04:07:33;;;;;;;2.58;1.10;;;13.70;99.90;;;;;;5033774;28;20073;-35
2022/07/08 04:09:59;;;;;;;2.83;0.75;;;13.70;99.90;;;;;;5021679;28;20390;-29
2022/07/08 04:12:24;;;;;;;3.08;0.80;;;13.70;99.90;;;;;;5033483;28;20030;-34
2022/07/08 04:14:50;;;;;;;4.57;0.90;;;13.70;99.90;;;;;;5034089;28;20033;-33
2022/07/08 04:17:15;;;;;;;4.22;0.90;;;13.70;99.90;;;;;;5033290;28;20035;-32
2022/07/08 04:19:41;;;;;;;5.47;1.02;;;13.80;99.90;;;;;;5014271;28;20490;-32
2022/07/08 04:22:07;;;;;;;3.15;1.10;;;13.80;99.90;;;;;;5030193;28;20109;-31
2022/07/08 04:24:32;;;;;;;1.20;0.80;;;13.80;99.90;;;;;;5017182;28;20474;-34
2022/07/08 04:26:58;;;;;;;1.95;0.77;;;13.80;99.90;;;;;;5035234;28;20029;-28
2022/07/08 04:29:23;;;;;;;4.97;1.17;;;13.90;99.90;;;;;;5033992;28;20021;-34
2022/07/08 04:31:49;;;;;;;5.55;1.02;;;13.90;99.90;;;;;;5029327;28;20473;-39
2022/07/08 04:34:15;;;;;;;7.88;1.20;;;13.90;99.90;;;;;;5031050;28;20033;-36
2022/07/08 04:36:40;;;;;;;2.83;0.95;;;13.90;99.90;;;;;;5033343;28;20029;-46
2022/07/08 04:39:06;;;;;;;7.30;1.25;;;14.00;99.90;;;;;;5031712;28;20029;-37
2022/07/08 04:41:31;;;;;;;3.83;1.00;;;14.10;99.90;;;;;;5015398;28;20362;-39
2022/07/08 04:43:57;;;;;;;6.00;0.88;;;14.10;99.90;;;;;;5034683;28;20057;-38
2022/07/08 04:46:23;;;;;;;4.85;1.10;;;14.10;99.90;;;;;;5029662;28;20147;-39
2022/07/08 04:48:48;;;;;;;3.80;1.45;;;14.20;99.90;;;;;;5033616;28;20037;-38
2022/07/08 04:51:14;;;;;;;6.10;1.92;;;14.20;99.90;;;;;;5033582;28;20469;-39
2022/07/08 04:53:39;;;;;;;9.43;1.50;;;14.20;99.90;;;;;;5034460;28;20043;-61
2022/07/08 04:56:05;;;;;;;6.60;1.10;;;14.20;99.90;;;;;;5030513;28;20022;-38
2022/07/08 04:58:31;;;;;;;6.45;1.10;;;14.30;99.90;;;;;;5033347;28;20401;-38
2022/07/08 05:00:57;;;;;;;3.58;1.10;;;14.30;99.90;;;;;;5011397;28;20030;-38
2022/07/08 05:03:22;;;;;;;5.80;1.50;;;14.30;99.90;;;;;;5014666;28;20022;-36
2022/07/08 05:05:48;;;;;;;11.35;1.35;;;14.40;99.90;;;;;;5011051;28;20053;-31
2022/07/08 05:08:14;;;;;;;9.68;1.45;;;14.40;99.90;;;;;;5032795;28;20057;-38
2022/07/08 05:10:39;;;;;;;4.60;0.98;;;14.50;99.90;;;;;;5032286;28;20024;-31
2022/07/08 05:13:07;;;;;;;5.20;1.02;;;14.60;99.90;;;;;;5033122;28;20393;-49
2022/07/08 05:15:32;;;;;;;6.57;1.30;;;14.80;99.90;;;;;;5030830;28;20029;-38
2022/07/08 05:17:58;;;;;;;6.82;1.00;;;14.80;99.90;;;;;;4997948;28;20026;-39
2022/07/08 05:20:24;;;;;;;7.88;1.98;;;14.90;99.90;;;;;;5030173;28;20033;-37
2022/07/08 05:22:49;;;;;;;2.53;1.10;;;15.00;99.90;;;;;;5033514;28;20588;-38
2022/07/08 05:25:15;;;;;;;7.95;2.20;;;15.20;99.90;;;;;;5032160;28;20366;-39
2022/07/08 05:27:41;;;;;;;7.22;1.33;;;15.30;99.90;;;;;;5033844;28;20108;-39
2022/07/08 05:30:09;;;;;;;6.13;1.63;;;15.40;99.90;;;;;;5032105;28;20022;-39
2022/07/08 05:32:35;;;;;;;7.82;2.25;;;15.50;99.90;;;;;;5032475;28;20025;-56
2022/07/08 05:35:02;;;;;;;4.07;1.70;;;15.60;99.90;;;;;;5031191;28;20525;-38
2022/07/08 05:37:29;;;;;;;8.75;1.48;;;15.60;99.90;;;;;;5032676;28;20033;-39
2022/07/08 05:39:55;;;;;;;8.80;2.20;;;15.80;99.90;;;;;;5031812;28;20497;-39
2022/07/08 05:42:20;;;;;;;10.45;1.70;;;15.80;99.90;;;;;;5030449;28;20033;-75
2022/07/08 05:44:46;;;;;;;6.65;2.60;;;15.90;99.90;;;;;;5032471;28;20022;-39
2022/07/08 05:47:13;;;;;;;3.97;1.90;;;15.90;99.90;;;;;;5032655;28;20046;-39
2022/07/08 05:49:39;;;;;;;3.40;1.90;;;15.90;99.90;;;;;;5032882;28;20476;-40
2022/07/08 05:52:06;;;;;;;8.98;2.00;;;16.00;99.90;;;;;;5026162;28;20025;-38
2022/07/08 05:54:32;;;;;;;8.45;2.05;;;16.00;99.90;;;;;;5029324;28;20480;-37
2022/07/08 05:56:58;;;;;;;5.93;1.60;;;16.00;99.90;;;;;;5033366;28;20393;-38
2022/07/08 05:59:24;;;;;;;16.67;2.88;;;16.10;99.90;;;;;;5033608;28;20108;-38
2022/07/08 06:01:50;;;;;;;3.83;1.73;;;16.10;99.90;;;;;;5011602;28;20606;-38
2022/07/08 06:04:16;;;;;;;9.52;1.50;;;16.20;99.90;;;;;;5031758;28;20017;-38
2022/07/08 06:06:41;;;;;;;4.63;1.45;;;16.30;99.90;;;;;;5030102;28;20511;-39
2022/07/08 06:09:07;;;;;;;3.45;1.75;;;16.30;99.90;;;;;;5033184;28;20101;-38
2022/07/08 06:11:32;;;;;;;3.33;1.38;;;16.40;99.90;;;;;;5033207;28;20481;-39
2022/07/08 06:13:59;;;;;;;11.13;2.40;;;16.40;99.90;;;;;;5031999;28;20045;-39
2022/07/08 06:16:24;;;;;;;8.68;1.63;;;16.50;99.90;;;;;;5031976;28;20127;-37
2022/07/08 06:18:50;;;;;;;5.65;1.70;;;16.50;99.90;;;;;;5032424;28;20061;-39
2022/07/08 06:21:15;;;;;;;3.72;1.83;;;16.60;99.90;;;;;;5030176;28;20017;-36
2022/07/08 06:23:41;;;;;;;2.85;1.45;;;16.60;99.90;;;;;;5031585;28;20034;-38
2022/07/08 06:26:07;;;;;;;11.02;2.20;;;16.70;99.90;;;;;;5032627;28;20026;-38
2022/07/08 06:28:32;;;;;;;4.22;1.77;;;16.70;99.90;;;;;;5030875;28;20468;-39
2022/07/08 06:30:58;;;;;;;4.82;1.48;;;16.80;99.90;;;;;;5031912;28;20101;-38
2022/07/08 06:33:23;;;;;;;7.85;1.60;;;16.90;99.90;;;;;;5033029;28;20041;-39
2022/07/08 06:35:49;;;;;;;10.55;1.73;;;17.10;99.90;;;;;;5013898;28;20030;-32
2022/07/08 06:38:15;;;;;;;5.70;1.70;;;17.30;99.90;;;;;;5030556;28;20033;-33
2022/07/08 06:40:40;;;;;;;5.88;1.50;;;17.70;99.90;;;;;;5029123;28;20033;-33
2022/07/08 06:43:06;;;;;;;9.70;1.52;;;17.90;99.90;;;;;;5009956;28;20087;-31
2022/07/08 06:45:32;;;;;;;8.75;1.33;;;18.10;99.90;;;;;;5030798;28;20042;-28
2022/07/08 06:48:01;;;;;;;4.55;1.52;;;18.10;99.90;;;;;;5031587;28;20018;-33
2022/07/08 06:50:27;;;;;;;14.93;2.22;;;18.10;99.90;;;;;;5032056;28;20485;-34
2022/07/08 06:52:53;;;;;;;10.85;2.22;;;18.20;99.90;;;;;;5029206;28;20385;-40
2022/07/08 06:55:18;;;;;;;7.78;1.65;;;18.20;99.90;;;;;;5028879;28;20032;-36
2022/07/08 06:57:44;;;;;;;10.43;1.83;;;18.10;99.90;;;;;;5027748;28;20532;-33
2022/07/08 07:00:10;;;;;;;6.20;1.58;;;18.10;99.90;;;;;;5036201;28;20155;-35
2022/07/08 07:02:36;;;;;;;7.03;1.45;;;18.10;99.90;;;;;;5018633;28;20033;-32
2022/07/08 07:05:02;;;;;;;10.82;1.40;;;18.10;99.90;;;;;;5034156;28;20021;-32
2022/07/08 07:07:28;;;;;;;8.15;1.63;;;17.90;99.90;;;;;;5032767;28;20377;-32
2022/07/08 07:09:54;;;;;;;8.20;2.03;;;17.80;99.90;;;;;;5035226;28;20029;-33
2022/07/08 07:12:20;;;;;;;9.18;1.08;;;17.90;99.90;;;;;;5033460;28;20033;-32
2022/07/08 07:14:46;;;;;;;10.40;1.67;;;17.90;99.90;;;;;;5029379;28;20032;-29
2022/07/08 07:17:11;;;;;;;8.20;1.20;;;18.40;99.90;;;;;;5008391;28;20481;-36
2022/07/08 07:19:37;;;;;;;8.23;1.48;;;18.90;99.90;;;;;;5034514;28;20029;-33
2022/07/08 07:22:04;;;;;;;6.75;1.10;;;18.90;99.90;;;;;;5035890;28;20029;-31
2022/07/08 07:24:29;;;;;;;10.40;1.05;;;18.90;99.90;;;;;;5034992;28;20033;-32
2022/07/08 07:26:55;;;;;;;2.60;1.08;;;19.20;99.90;;;;;;5036141;28;20492;-30
2022/07/08 07:29:21;;;;;;;6.50;1.23;;;19.80;99.90;;;;;;5035375;28;20363;-31
2022/07/08 07:31:46;;;;;;;11.57;1.70;;;20.10;99.90;;;;;;5036254;28;20473;-33
2022/07/08 07:34:12;;;;;;;4.50;1.02;;;20.40;99.90;;;;;;5035463;28;20112;-38
2022/07/08 07:36:38;;;;;;;11.25;2.25;;;20.50;99.90;;;;;;5034475;28;20087;-39
2022/07/08 07:39:03;;;;;;;10.07;1.60;;;20.40;99.90;;;;;;5034873;28;20036;-30
2022/07/08 07:41:29;;;;;;;3.03;1.00;;;20.20;99.90;;;;;;5033532;28;20079;-31
2022/07/08 07:43:54;;;;;;;4.45;0.50;;;20.30;99.90;;;;;;5016639;28;20481;-31
2022/07/08 07:46:20;;;;;;;8.02;1.02;;;20.30;99.90;;;;;;5028601;28;20041;-34
2022/07/08 07:48:46;;;;;;;6.28;1.05;;;20.00;99.90;;;;;;5033172;28;20743;-32
2022/07/08 07:51:11;;;;;;;5.05;1.05;;;19.80;99.90;;;;;;5031580;28;20017;-32
2022/07/08 07:53:37;;;;;;;7.55;1.13;;;19.60;99.90;;;;;;5033507;28;20023;-32
2022/07/08 07:56:03;;;;;;;6.88;0.82;;;19.70;99.90;;;;;;5033869;28;20080;-32
2022/07/08 07:58:29;;;;;;;4.63;0.98;;;19.70;99.90;;;;;;5034750;28;20025;-40
2022/07/08 08:00:54;;;;;;;5.60;1.08;;;19.90;99.90;;;;;;5034754;28;20052;-30
2022/07/08 08:03:20;;;;;;;5.03;1.42;;;20.00;99.90;;;;;;5034689;28;20520;-34
2022/07/08 08:05:46;;;;;;;12.82;1.35;;;20.10;99.90;;;;;;5031944;28;20029;-39
2022/07/08 08:08:12;;;;;;;6.57;1.17;;;20.20;99.90;;;;;;5034298;28;20071;-39
2022/07/08 08:10:38;;;;;;;7.47;1.33;;;20.40;99.90;;;;;;5030165;28;20021;-31
2022/07/08 08:13:04;;;;;;;7.55;1.48;;;20.80;99.90;;;;;;5030167;28;20106;-37
2022/07/08 08:15:30;;;;;;;7.18;2.50;;;21.10;99.90;;;;;;5033519;28;20029;-38
2022/07/08 08:17:57;;;;;;;3.22;0.93;;;21.10;99.90;;;;;;5033044;28;20385;-55
2022/07/08 08:20:25;;;;;;;4.00;0.65;;;21.20;99.90;;;;;;5030265;28;20531;-37
2022/07/08 08:22:51;;;;;;;3.30;0.93;;;21.50;99.90;;;;;;5034523;28;20484;-38
2022/07/08 08:25:17;;;;;;;8.45;1.30;;;21.60;99.90;;;;;;5028666;28;20370;-39
2022/07/08 08:27:43;;;;;;;5.83;0.93;;;21.80;99.90;;;;;;5013342;28;20043;-36
2022/07/08 08:30:09;;;;;;;8.63;1.30;;;22.40;99.90;;;;;;5016308;28;20038;-32
2022/07/08 08:32:35;;;;;;;4.75;1.42;;;23.00;99.90;;;;;;5033873;28;20044;-33
2022/07/08 08:35:01;;;;;;;2.92;1.02;;;22.90;99.90;;;;;;5034736;28;20025;-32
2022/07/08 08:37:27;;;;;;;2.88;1.05;;;22.50;99.90;;;;;;5034735;28;20021;-35
2022/07/08 08:39:53;;;;;;;7.45;1.70;;;22.80;99.90;;;;;;5034612;28;20028;-33
2022/07/08 08:42:20;;;;;;;5.25;1.67;;;23.40;99.90;;;;;;5034477;28;20041;-32
2022/07/08 08:44:49;;;;;;;5.70;1.55;;;24.10;99.90;;;;;;5033546;28;20429;-32
2022/07/08 08:47:23;;;;;;;12.15;1.27;;;24.20;99.90;;;;;;5034434;28;20040;-41
2022/07/08 08:49:49;;;;;;;4.60;1.55;;;24.20;99.90;;;;;;5030722;28;20029;-39
2022/07/08 08:52:16;;;;;;;4.03;1.10;;;24.20;99.90;;;;;;5033246;28;20027;-39
2022/07/08 08:54:42;;;;;;;8.82;2.22;;;24.20;99.90;;;;;;5033679;28;20029;-39
2022/07/08 08:57:08;;;;;;;5.10;1.43;;;24.60;99.90;;;;;;5033373;28;20071;-39
2022/07/08 08:59:35;;;;;;;4.18;1.00;;;25.00;99.90;;;;;;5034297;28;20108;-39
2022/07/08 09:02:01;;;;;;;4.18;1.05;;;25.30;99.20;;;;;;5031543;28;20029;-40
2022/07/08 09:04:30;;;;;;;2.60;0.50;;;25.80;98.80;;;;;;5031661;28;20473;-38
2022/07/08 09:06:56;;;;;;;3.60;0.93;;;25.80;98.80;;;;;;5029676;28;20182;-39
2022/07/08 09:09:21;;;;;;;3.70;0.70;;;25.90;98.70;;;;;;5034147;28;20089;-40
2022/07/08 09:11:47;;;;;;;2.90;0.85;;;25.80;97.80;;;;;;5032084;28;20037;-40
2022/07/08 09:14:23;;;;;;;3.10;0.95;;;25.60;98.60;;;;;;5032737;28;20017;-40
2022/07/08 09:17:17;;;;;;;3.33;0.80;;;26.00;98.30;;;;;;5014789;28;20437;-41
2022/07/08 09:19:46;;;;;;;3.88;0.88;;;26.30;98.20;;;;;;5007593;28;20030;-40
2022/07/08 09:22:12;;;;;;;1.67;1.00;;;26.60;97.80;;;;;;5028522;28;20026;-40
2022/07/08 09:24:41;;;;;;;4.43;1.08;;;25.80;97.90;;;;;;5015467;28;20045;-39
2022/07/08 09:27:07;;;;;;;4.63;0.90;;;25.40;98.50;;;;;;5025222;28;20018;-40
2022/07/08 09:29:33;;;;;;;8.70;0.90;;;25.00;98.50;;;;;;5031594;28;20393;-42
2022/07/08 09:32:15;;;;;;;2.03;0.83;;;24.80;98.90;;;;;;5031991;28;20032;-42
2022/07/08 09:34:41;;;;;;;4.50;0.93;;;24.50;98.80;;;;;;5031281;28;20511;-36
2022/07/08 09:37:12;;;;;;;8.05;0.90;;;24.00;99.30;;;;;;5032392;28;20389;-37
2022/07/08 09:39:38;;;;;;;4.00;0.90;;;23.90;99.20;;;;;;5029623;28;20371;-33
2022/07/08 09:42:07;;;;;;;3.80;0.85;;;23.90;99.20;;;;;;5013046;28;20044;-36
2022/07/08 09:44:33;;;;;;;2.08;1.10;;;23.80;99.60;;;;;;5033713;28;20473;-34
2022/07/08 09:46:58;;;;;;;2.78;1.55;;;23.70;99.90;;;;;;5031820;28;20041;-32
2022/07/08 09:49:31;;;;;;;2.35;0.75;;;23.40;99.90;;;;;;5028868;28;20037;-30
2022/07/08 09:51:57;;;;;;;6.57;0.93;;;23.30;99.90;;;;;;5033246;28;20060;-33
2022/07/08 09:54:24;;;;;;;1.58;0.60;;;23.10;99.90;;;;;;5033322;28;20030;-33
2022/07/08 09:57:08;;;;;;;4.53;1.00;;;22.90;99.90;;;;;;5032514;28;20033;-32
2022/07/08 09:59:35;;;;;;;4.43;1.50;;;22.90;99.90;;;;;;5033493;28;20505;-32
2022/07/08 10:02:02;;;;;;;5.28;1.08;;;23.10;99.90;;;;;;5015774;28;20124;-32
2022/07/08 10:04:28;;;;;;;4.67;0.90;;;23.40;99.90;;;;;;5033209;28;20022;-33
2022/07/08 10:06:56;;;;;;;3.95;1.00;;;23.70;99.80;;;;;;5029971;28;20366;-32
2022/07/08 10:09:22;;;;;;;6.25;0.98;;;23.90;99.90;;;;;;5032022;28;20064;-39
2022/07/08 10:11:49;;;;;;;5.72;0.70;;;24.20;99.40;;;;;;5032194;28;20096;-41
2022/07/08 10:14:15;;;;;;;6.43;0.90;;;24.60;99.50;;;;;;5030418;28;20473;-39
2022/07/08 10:16:43;;;;;;;8.53;1.00;;;25.10;98.60;;;;;;5014957;28;20041;-41
2022/07/08 10:19:13;;;;;;;2.58;1.15;;;25.10;98.80;;;;;;5033204;28;20029;-39
2022/07/08 10:21:43;;;;;;;2.67;0.93;;;25.50;98.60;;;;;;5032680;28;20513;-38
2022/07/08 10:24:17;;;;;;;3.25;0.80;;;25.20;98.00;;;;;;5033004;28;20034;-39
2022/07/08 10:26:44;;;;;;;13.57;0.90;;;24.80;98.60;;;;;;5032388;28;20022;-38
2022/07/08 10:29:13;;;;;;;0.97;0.90;;;24.70;98.60;;;;;;5031254;28;20545;-38
2022/07/08 10:31:46;;;;;;;3.00;1.10;;;24.60;98.60;;;;;;5034800;28;20083;-39
2022/07/08 10:34:13;;;;;;;3.20;1.08;;;24.80;98.50;;;;;;5017934;28;20030;-40
2022/07/08 10:36:50;;;;;;;4.20;1.17;;;25.20;98.10;;;;;;5018244;28;20485;-40
2022/07/08 10:39:31;;;;;;;3.05;0.80;;;25.50;98.50;;;;;;5033214;28;20033;-41
2022/07/08 10:42:00;;;;;;;4.32;1.00;;;25.70;98.20;;;;;;5036709;28;20033;-40
2022/07/08 10:44:49;;;;;;;4.05;0.90;;;25.30;98.30;;;;;;5037096;28;20026;-37
2022/07/08 10:47:17;;;;;;;3.78;1.20;;;24.80;98.70;;;;;;5023692;28;20045;-38
2022/07/08 10:49:44;;;;;;;3.63;0.90;;;24.60;98.90;;;;;;5036806;28;20029;-39
2022/07/08 10:52:11;;;;;;;2.72;1.05;;;24.60;99.00;;;;;;5036759;28;20160;-38
2022/07/08 10:54:37;;;;;;;7.10;1.40;;;24.60;99.00;;;;;;5036685;28;20490;-38
2022/07/08 10:57:26;;;;;;;5.07;1.52;;;24.60;99.30;;;;;;5036739;28;20035;-39
2022/07/08 11:00:18;;;;;;;3.17;0.75;;;24.60;98.70;;;;;;5021735;28;20446;-38
2022/07/08 11:02:46;;;;;;;1.58;0.98;;;25.10;99.00;;;;;;5031916;28;20046;-39
2022/07/08 11:05:37;;;;;;;3.58;0.73;;;25.20;98.20;;;;;;5026971;28;20064;-38
2022/07/08 11:08:22;;;;;;;1.50;0.73;;;24.60;98.50;;;;;;5016614;28;20018;-39
2022/07/08 11:10:49;;;;;;;1.30;0.73;;;24.50;98.10;;;;;;5016559;28;20394;-39
2022/07/08 11:13:15;;;;;;;1.15;0.77;;;24.60;97.80;;;;;;5021684;28;20466;-38
2022/07/08 11:15:40;;;;;;;2.92;0.70;;;24.10;97.40;;;;;;5036323;28;20112;-39
2022/07/08 11:18:07;;;;;;;5.13;1.05;;;23.80;97.70;;;;;;5018683;28;20163;-38
2022/07/08 11:20:35;;;;;;;10.87;1.13;;;23.60;98.30;;;;;;5018591;28;20028;-29
2022/07/08 11:23:05;;;;;;;0.63;0.60;;;23.60;98.90;;;;;;5035544;28;20381;-31
2022/07/08 11:25:31;;;;;;;0.77;0.60;;;23.60;98.90;;;;;;5036136;28;20509;-31
2022/07/08 11:27:57;;;;;;;5.45;0.98;;;23.90;98.80;;;;;;5017921;28;20482;-31
2022/07/08 11:30:23;;;;;;;2.45;1.15;;;24.20;98.30;;;;;;5036350;28;20024;-30
2022/07/08 11:32:50;;;;;;;3.17;1.10;;;24.40;97.90;;;;;;5036021;28;20482;-33
2022/07/08 11:35:18;;;;;;;2.63;0.85;;;24.60;98.30;;;;;;5035849;28;20037;-29
2022/07/08 11:37:45;;;;;;;0.95;0.75;;;24.30;97.70;;;;;;5035897;28;20171;-31
2022/07/08 11:40:12;;;;;;;0.67;0.57;;;24.00;98.40;;;;;;5034889;28;20401;-35
2022/07/08 11:42:39;;;;;;;1.95;0.98;;;23.90;98.10;;;;;;5034968;28;20032;-35
2022/07/08 11:45:14;;;;;;;1.55;0.93;;;23.90;98.80;;;;;;5035843;28;20064;-56
2022/07/08 11:47:39;;;;;;;0.70;0.70;;;24.00;98.00;;;;;;5035840;28;20569;-41
2022/07/08 11:50:08;;;;;;;2.58;0.70;;;23.90;98.20;;;;;;5035608;28;20056;-30
2022/07/08 11:52:34;;;;;;;2.22;0.60;;;23.90;98.10;;;;;;5035599;28;20393;-32
2022/07/08 11:54:59;;;;;;;1.63;1.10;;;23.80;97.60;;;;;;5035646;28;20021;-30
2022/07/08 11:57:25;;;;;;;1.52;0.68;;;23.80;97.20;;;;;;5031182;28;20083;-33
2022/07/08 11:59:51;;;;;;;2.45;0.63;;;23.60;97.50;;;;;;5034714;28;20505;-32
2022/07/08 12:02:20;;;;;;;5.13;1.38;;;23.60;97.90;;;;;;5032601;28;20032;-33
2022/07/08 12:04:50;;;;;;;3.17;0.55;;;23.80;97.30;;;;;;5034259;28;20025;-30
2022/07/08 12:07:26;;;;;;;1.00;0.50;;;23.90;97.70;;;;;;5015796;28;20038;-33
2022/07/08 12:09:57;;;;;;;4.65;0.90;;;23.90;97.50;;;;;;5023778;28;20370;-33
2022/07/08 12:12:28;;;;;;;0.60;0.60;;;24.20;97.70;;;;;;5034656;28;20025;-32
2022/07/08 12:14:54;;;;;;;1.25;1.05;;;24.40;97.50;;;;;;5035510;28;20029;-32
2022/07/08 12:17:28;;;;;;;1.85;0.65;;;24.60;97.80;;;;;;5017179;28;20030;-32
2022/07/08 12:19:58;;;;;;;1.38;0.65;;;24.40;97.60;;;;;;5035412;28;20516;-34
2022/07/08 12:22:46;;;;;;;2.22;0.75;;;24.20;97.60;;;;;;5034881;28;20026;-29
2022/07/08 12:25:13;;;;;;;7.38;1.30;;;24.40;98.00;;;;;;5035029;28;20029;-30
2022/07/08 12:27:39;;;;;;;2.72;1.33;;;24.50;97.70;;;;;;5035136;28;20485;-31
2022/07/08 12:30:06;;;;;;;6.50;0.73;;;24.20;97.70;;;;;;5034294;28;20056;-32
2022/07/08 12:32:39;;;;;;;7.65;1.20;;;24.20;98.40;;;;;;5034933;28;20442;-31
2022/07/08 12:35:06;;;;;;;2.75;0.93;;;24.30;98.60;;;;;;5034919;28;20367;-40
2022/07/08 12:37:31;;;;;;;5.90;1.02;;;24.50;98.30;;;;;;5034890;28;20385;-39
2022/07/08 12:40:10;;;;;;;1.17;0.60;;;24.60;97.90;;;;;;5034765;28;20079;-44
2022/07/08 12:42:36;;;;;;;7.53;1.00;;;24.60;97.30;;;;;;5034606;28;20022;-39
2022/07/08 12:45:13;;;;;;;2.28;0.63;;;24.60;97.80;;;;;;5034521;28;20135;-38
2022/07/08 12:47:39;;;;;;;3.08;0.73;;;24.90;97.50;;;;;;5033898;28;20021;-39